Terminal Aerodrome Forecast
Issued by NWS

Home | Current Version | Previous Version | Text Only | Print | Product List | Glossary On
Versions: 1 2 3 4 5 6 7 8 9 10 11 12 13 14 15 16 17 18 19 20 21 22 23 24 25 26 27
771
FTUS43 KGRR 180530
TAFMKG
TAF
KMKG 180530Z 1806/1906 10003KT 2SM BR OVC014
     FM180900 18003KT 1 1/2SM -RA BR OVC007
     FM181400 22006KT 1/2SM -DZ FG OVC002
     FM181500 24007KT 4SM BR OVC007
     FM182000 23010KT 5SM BR OVC015=

USA.gov is the U.S. government's official web portal to all federal, state and local government web resources and services.